Time;durP1;ratioP1;P1;durP2;ratioP2;P2;SDS_P1;SDS_P2;PMS_P1;PMS_P2;Temp;Humidity;BMP_temperature;BMP_pressure;BME280_temperature;BME280_humidity;BME280_pressure;Samples;Min_cycle;Max_cycle;Signal;HPM_P1;HPM_P2
2022/11/27 00:00:24;;;;;;;5.53;3.10;;;;;;;;;;5036827;28;20210;-90
2022/11/27 00:02:50;;;;;;;11.47;3.10;;;;;;;;;;5039133;28;20468;-89
2022/11/27 00:05:16;;;;;;;7.53;4.43;;;;;;;;;;5056590;28;20487;-90
2022/11/27 00:07:42;;;;;;;8.52;3.70;;;;;;;;;;5059100;28;20158;-86
2022/11/27 00:10:08;;;;;;;9.37;3.70;;;;;;;;;;5048036;28;20270;-90
2022/11/27 00:12:35;;;;;;;15.77;4.03;;;;;;;;;;5039583;28;20474;-89
2022/11/27 00:15:01;;;;;;;13.40;4.65;;;;;;;;;;5040449;28;20190;-89
2022/11/27 00:17:26;;;;;;;9.80;3.53;;;;;;;;;;5039541;28;20536;-90
2022/11/27 00:19:52;;;;;;;12.00;3.27;;;;;;;;;;5038034;28;20457;-89
2022/11/27 00:22:18;;;;;;;8.80;3.17;;;;;;;;;;5037180;28;20441;-89
2022/11/27 00:24:44;;;;;;;10.65;3.50;;;;;;;;;;5037971;28;20179;-90
2022/11/27 00:27:10;;;;;;;9.77;3.50;;;;;;;;;;5020003;28;20631;-88
2022/11/27 00:29:36;;;;;;;7.27;2.80;;;;;;;;;;5037988;28;20459;-90
2022/11/27 00:32:05;;;;;;;8.15;3.50;;;;;;;;;;5035958;28;20898;-89
2022/11/27 00:34:31;;;;;;;7.22;3.50;;;;;;;;;;5037757;28;20171;-90
2022/11/27 00:36:57;;;;;;;9.67;3.23;;;;;;;;;;5038666;28;20238;-90
2022/11/27 00:39:23;;;;;;;7.40;3.30;;;;;;;;;;5021807;28;20567;-90
2022/11/27 00:41:49;;;;;;;6.75;2.90;;;;;;;;;;5037736;28;20436;-89
2022/11/27 00:44:15;;;;;;;11.18;3.45;;;;;;;;;;5038117;28;20632;-90
2022/11/27 00:46:41;;;;;;;6.43;2.73;;;;;;;;;;5039363;28;20333;-90
2022/11/27 00:49:07;;;;;;;11.35;3.33;;;;;;;;;;5038351;28;20466;-89
2022/11/27 00:51:34;;;;;;;11.93;3.58;;;;;;;;;;5039859;28;20522;-88
2022/11/27 00:54:00;;;;;;;15.52;4.10;;;;;;;;;;5037820;28;20230;-88
2022/11/27 00:56:28;;;;;;;12.73;3.83;;;;;;;;;;5040167;28;20185;-89
2022/11/27 00:58:54;;;;;;;9.68;3.55;;;;;;;;;;5039413;28;20692;-89
2022/11/27 01:01:28;;;;;;;12.60;3.78;;;;;;;;;;5023131;28;20182;-89
2022/11/27 01:03:55;;;;;;;8.60;4.05;;;;;;;;;;5042016;28;20174;-90
2022/11/27 01:06:21;;;;;;;9.85;4.45;;;;;;;;;;5043897;28;20176;-90
2022/11/27 01:08:47;;;;;;;11.18;3.53;;;;;;;;;;5043432;28;20197;-88
2022/11/27 01:11:14;;;;;;;11.30;3.75;;;;;;;;;;5046423;28;20186;-89
2022/11/27 01:13:41;;;;;;;7.40;4.05;;;;;;;;;;5040788;28;20220;-88
2022/11/27 01:16:11;;;;;;;17.00;5.53;;;;;;;;;;5038354;28;20170;-89
2022/11/27 01:18:38;;;;;;;7.55;3.90;;;;;;;;;;5034609;28;20610;-89
2022/11/27 01:21:04;;;;;;;9.77;3.65;;;;;;;;;;5034075;28;20229;-87
2022/11/27 01:23:30;;;;;;;11.63;4.57;;;;;;;;;;5034503;28;20174;-89
2022/11/27 01:25:59;;;;;;;8.00;4.07;;;;;;;;;;5035383;28;20203;-89
2022/11/27 01:28:25;;;;;;;6.90;3.63;;;;;;;;;;5033759;28;20574;-90
2022/11/27 01:30:51;;;;;;;9.33;4.67;;;;;;;;;;5035228;28;20277;-91
2022/11/27 01:33:17;;;;;;;6.35;3.33;;;;;;;;;;5034283;28;20825;-86
2022/11/27 01:35:52;;;;;;;11.93;3.55;;;;;;;;;;5029862;28;20186;-87
2022/11/27 01:38:18;;;;;;;12.55;4.10;;;;;;;;;;5028459;28;20686;-90
2022/11/27 01:40:43;;;;;;;8.90;3.83;;;;;;;;;;5033912;28;20233;-89
2022/11/27 01:43:13;;;;;;;13.77;4.90;;;;;;;;;;5033532;28;20959;-90
2022/11/27 01:45:39;;;;;;;11.98;4.00;;;;;;;;;;5035113;28;20504;-90
2022/11/27 01:48:06;;;;;;;12.32;4.28;;;;;;;;;;5035936;28;20210;-82
2022/11/27 01:50:35;;;;;;;14.27;3.95;;;;;;;;;;5033746;28;20621;-89
2022/11/27 01:53:05;;;;;;;9.15;3.85;;;;;;;;;;5035206;28;20573;-90
2022/11/27 01:55:34;;;;;;;11.27;3.83;;;;;;;;;;5034896;28;20242;-90
2022/11/27 01:58:09;;;;;;;9.98;3.58;;;;;;;;;;5035155;28;20216;-90
2022/11/27 02:00:36;;;;;;;10.50;4.30;;;;;;;;;;5034193;28;20214;-89
2022/11/27 02:03:02;;;;;;;9.15;5.20;;;;;;;;;;5034353;28;20189;-89
2022/11/27 02:05:28;;;;;;;14.13;5.65;;;;;;;;;;5034491;28;20671;-90
2022/11/27 02:07:54;;;;;;;15.30;4.90;;;;;;;;;;5034048;28;20196;-90
2022/11/27 02:10:21;;;;;;;10.77;5.03;;;;;;;;;;5034242;28;20197;-90
2022/11/27 02:12:52;;;;;;;12.02;5.38;;;;;;;;;;5033255;28;20200;-90
2022/11/27 02:15:24;;;;;;;9.18;5.45;;;;;;;;;;5033498;28;20174;-89
2022/11/27 02:18:08;;;;;;;17.95;5.80;;;;;;;;;;5034952;28;20178;-90
2022/11/27 02:20:47;;;;;;;11.07;5.07;;;;;;;;;;5035769;28;20202;-90
2022/11/27 02:23:19;;;;;;;10.05;4.85;;;;;;;;;;5041073;28;20170;-90
2022/11/27 02:25:51;;;;;;;12.95;5.60;;;;;;;;;;5043913;28;20224;-88
2022/11/27 02:28:36;;;;;;;16.10;6.18;;;;;;;;;;5040459;28;20649;-90
2022/11/27 02:31:18;;;;;;;11.13;5.75;;;;;;;;;;5041951;28;20515;-90
2022/11/27 02:33:46;;;;;;;7.28;5.22;;;;;;;;;;5041908;28;20173;-90
2022/11/27 02:36:14;;;;;;;13.68;5.85;;;;;;;;;;5039581;28;20224;-89
2022/11/27 02:38:43;;;;;;;14.38;5.00;;;;;;;;;;5040249;28;20230;-90
2022/11/27 02:41:17;;;;;;;13.20;5.35;;;;;;;;;;5039259;28;20190;-91
2022/11/27 02:43:45;;;;;;;12.48;5.22;;;;;;;;;;5040360;28;20223;-91
2022/11/27 02:46:12;;;;;;;12.38;5.30;;;;;;;;;;5040983;28;20173;-90
2022/11/27 02:48:43;;;;;;;8.60;5.10;;;;;;;;;;5041782;28;20250;-91
2022/11/27 02:51:10;;;;;;;10.43;5.35;;;;;;;;;;5041907;28;20300;-85
2022/11/27 02:53:38;;;;;;;14.82;5.57;;;;;;;;;;5040856;28;20189;-91
2022/11/27 02:56:09;;;;;;;13.15;5.53;;;;;;;;;;5043141;28;20174;-91
2022/11/27 02:58:35;;;;;;;11.60;6.90;;;;;;;;;;5043026;28;20257;-91
2022/11/27 03:01:03;;;;;;;14.45;6.20;;;;;;;;;;5040874;28;20205;-91
2022/11/27 03:03:32;;;;;;;15.18;5.07;;;;;;;;;;5042530;28;20525;-91
2022/11/27 03:06:01;;;;;;;9.05;5.82;;;;;;;;;;5042859;28;20166;-92
2022/11/27 03:08:37;;;;;;;12.07;6.10;;;;;;;;;;5042163;28;20197;-89
2022/11/27 03:11:06;;;;;;;16.45;6.93;;;;;;;;;;5044217;28;20166;-91
2022/11/27 03:13:36;;;;;;;20.30;7.78;;;;;;;;;;5042219;28;20174;-90
2022/11/27 03:16:16;;;;;;;11.05;6.10;;;;;;;;;;5043702;28;20162;-93
2022/11/27 03:18:55;;;;;;;15.50;6.65;;;;;;;;;;5044050;28;20233;-91
2022/11/27 03:21:24;;;;;;;12.95;5.93;;;;;;;;;;5048661;28;20233;-91
2022/11/27 03:23:50;;;;;;;18.90;7.10;;;;;;;;;;5043364;28;20180;-92
2022/11/27 03:26:16;;;;;;;17.10;8.10;;;;;;;;;;5056986;28;20162;-84
2022/11/27 03:28:43;;;;;;;24.63;6.40;;;;;;;;;;5063349;28;20189;-83
2022/11/27 03:31:09;;;;;;;15.93;6.85;;;;;;;;;;5051761;28;20766;-91
2022/11/27 03:33:35;;;;;;;22.42;6.03;;;;;;;;;;5041345;28;20597;-90
2022/11/27 03:36:01;;;;;;;10.63;5.97;;;;;;;;;;5037799;28;20177;-91
2022/11/27 03:38:27;;;;;;;15.23;7.13;;;;;;;;;;5037311;28;20245;-90
2022/11/27 03:40:59;;;;;;;18.10;8.45;;;;;;;;;;5036505;28;20220;-88
2022/11/27 03:43:28;;;;;;;16.17;7.78;;;;;;;;;;5037371;28;20167;-90
2022/11/27 03:45:59;;;;;;;15.63;7.13;;;;;;;;;;5036633;28;20194;-91
2022/11/27 03:48:48;;;;;;;12.60;6.88;;;;;;;;;;5037741;28;20158;-91
2022/11/27 03:51:19;;;;;;;12.10;7.07;;;;;;;;;;5038335;28;20220;-90
2022/11/27 03:53:48;;;;;;;16.33;8.15;;;;;;;;;;5037869;28;20644;-91
2022/11/27 03:56:23;;;;;;;14.85;8.00;;;;;;;;;;5038182;28;20585;-89
2022/11/27 03:58:49;;;;;;;10.25;6.80;;;;;;;;;;5043380;28;20533;-89
2022/11/27 04:01:17;;;;;;;13.48;8.30;;;;;;;;;;5042730;28;20638;-89
2022/11/27 04:03:43;;;;;;;15.85;8.02;;;;;;;;;;5041039;28;20217;-91
2022/11/27 04:06:10;;;;;;;13.18;7.40;;;;;;;;;;5038376;28;20227;-91
2022/11/27 04:08:36;;;;;;;15.45;7.88;;;;;;;;;;5037195;28;20176;-90
2022/11/27 04:11:02;;;;;;;13.75;7.97;;;;;;;;;;5037364;28;20232;-90
2022/11/27 04:13:28;;;;;;;9.85;6.20;;;;;;;;;;5036259;28;20252;-91
2022/11/27 04:15:54;;;;;;;14.85;8.25;;;;;;;;;;5037084;28;20279;-91
2022/11/27 04:18:20;;;;;;;11.90;6.37;;;;;;;;;;5037716;28;20242;-91
2022/11/27 04:20:46;;;;;;;17.93;9.20;;;;;;;;;;5037983;28;20858;-91
2022/11/27 04:23:12;;;;;;;18.00;7.73;;;;;;;;;;5037564;28;20437;-92
2022/11/27 04:25:38;;;;;;;19.30;8.67;;;;;;;;;;5037708;28;20439;-92
2022/11/27 04:28:04;;;;;;;14.68;6.75;;;;;;;;;;5036134;28;20523;-91
2022/11/27 04:30:30;;;;;;;11.95;7.68;;;;;;;;;;5036908;28;20564;-91
2022/11/27 04:32:56;;;;;;;14.02;8.10;;;;;;;;;;5037089;28;20186;-92
2022/11/27 04:35:22;;;;;;;14.00;8.47;;;;;;;;;;5037441;28;20178;-91
2022/11/27 04:37:48;;;;;;;16.00;8.03;;;;;;;;;;5037165;28;20491;-90
2022/11/27 04:40:14;;;;;;;24.73;8.60;;;;;;;;;;5035811;28;20492;-91
2022/11/27 04:42:40;;;;;;;15.68;8.40;;;;;;;;;;5034025;28;20413;-85
2022/11/27 04:45:07;;;;;;;15.65;9.13;;;;;;;;;;5035335;28;20190;-92
2022/11/27 04:47:33;;;;;;;13.82;8.27;;;;;;;;;;5037812;28;20251;-91
2022/11/27 04:49:59;;;;;;;13.95;9.13;;;;;;;;;;5021682;28;20208;-91
2022/11/27 04:52:25;;;;;;;15.50;6.67;;;;;;;;;;5039470;28;20183;-90
2022/11/27 04:54:51;;;;;;;15.77;8.97;;;;;;;;;;5037682;28;20481;-92
2022/11/27 04:57:17;;;;;;;10.70;6.97;;;;;;;;;;5037957;28;20413;-92
2022/11/27 04:59:43;;;;;;;14.90;7.97;;;;;;;;;;5038192;28;20468;-92
2022/11/27 05:02:09;;;;;;;15.50;8.35;;;;;;;;;;5036203;28;20224;-92
2022/11/27 05:04:35;;;;;;;17.53;8.27;;;;;;;;;;5037321;28;20574;-92
2022/11/27 05:07:01;;;;;;;17.15;9.13;;;;;;;;;;5035014;28;20544;-92
2022/11/27 05:09:27;;;;;;;21.40;8.50;;;;;;;;;;5036537;28;20193;-93
2022/11/27 05:11:53;;;;;;;17.70;7.82;;;;;;;;;;5036406;28;20567;-92
2022/11/27 05:14:21;;;;;;;13.27;7.40;;;;;;;;;;5037541;28;20172;-92
2022/11/27 05:16:48;;;;;;;17.77;8.15;;;;;;;;;;5037751;28;20402;-92
2022/11/27 05:19:15;;;;;;;15.05;8.45;;;;;;;;;;5036997;28;20209;-93
2022/11/27 05:21:42;;;;;;;14.35;8.02;;;;;;;;;;5039183;28;20174;-93
2022/11/27 05:24:08;;;;;;;14.55;6.80;;;;;;;;;;5022359;28;20269;-94
2022/11/27 05:26:34;;;;;;;14.27;8.85;;;;;;;;;;5039288;28;20702;-92
2022/11/27 05:29:00;;;;;;;19.25;8.05;;;;;;;;;;5038042;28;20631;-93
2022/11/27 05:31:26;;;;;;;12.85;8.43;;;;;;;;;;5041634;28;20179;-92
2022/11/27 05:33:53;;;;;;;9.85;7.00;;;;;;;;;;5042558;28;20178;-92
2022/11/27 05:36:19;;;;;;;18.92;7.53;;;;;;;;;;5040848;28;20182;-85
2022/11/27 05:38:45;;;;;;;11.50;7.30;;;;;;;;;;5039777;28;20427;-92
2022/11/27 05:41:11;;;;;;;12.30;7.33;;;;;;;;;;5039267;28;20481;-92
2022/11/27 05:43:37;;;;;;;20.67;7.43;;;;;;;;;;5038960;28;20401;-93
2022/11/27 05:46:06;;;;;;;17.60;7.40;;;;;;;;;;5038717;28;20179;-92
2022/11/27 05:48:33;;;;;;;15.38;7.07;;;;;;;;;;5036821;28;20588;-93
2022/11/27 05:50:59;;;;;;;17.35;8.13;;;;;;;;;;5038315;28;20522;-92
2022/11/27 05:53:25;;;;;;;12.55;7.53;;;;;;;;;;5037756;28;20622;-92
2022/11/27 05:55:51;;;;;;;13.00;6.73;;;;;;;;;;5037684;28;20185;-92
2022/11/27 05:58:17;;;;;;;13.23;6.77;;;;;;;;;;5020856;28;20484;-93
2022/11/27 06:00:44;;;;;;;17.45;8.30;;;;;;;;;;5022124;28;20475;-93
2022/11/27 06:03:09;;;;;;;11.43;7.38;;;;;;;;;;5036676;28;20642;-92
2022/11/27 06:05:40;;;;;;;12.10;7.13;;;;;;;;;;5037019;28;20237;-92
2022/11/27 06:08:06;;;;;;;13.98;6.88;;;;;;;;;;5022417;28;20205;-92
2022/11/27 06:10:33;;;;;;;12.97;6.93;;;;;;;;;;5038303;28;20193;-93
2022/11/27 06:12:58;;;;;;;10.85;7.20;;;;;;;;;;5039884;28;20412;-92
2022/11/27 06:15:24;;;;;;;15.50;6.57;;;;;;;;;;5037107;28;20182;-93
2022/11/27 06:17:50;;;;;;;11.00;6.83;;;;;;;;;;5037165;28;20495;-93
2022/11/27 06:20:19;;;;;;;12.05;7.75;;;;;;;;;;5037479;28;20808;-94
2022/11/27 06:22:45;;;;;;;13.15;9.10;;;;;;;;;;5036180;28;20633;-87
2022/11/27 06:25:11;;;;;;;15.43;7.18;;;;;;;;;;5040365;28;20187;-93
2022/11/27 06:27:37;;;;;;;14.27;8.80;;;;;;;;;;5046566;28;20179;-94
2022/11/27 06:30:03;;;;;;;14.15;6.68;;;;;;;;;;5041034;28;20528;-94
2022/11/27 06:32:29;;;;;;;14.77;6.25;;;;;;;;;;5039313;28;20576;-92
2022/11/27 06:34:55;;;;;;;9.88;6.70;;;;;;;;;;5037581;28;20182;-91
2022/11/27 06:37:21;;;;;;;8.52;5.80;;;;;;;;;;5038949;28;20177;-92
2022/11/27 06:39:48;;;;;;;9.18;5.93;;;;;;;;;;5037683;28;20241;-94
2022/11/27 06:42:14;;;;;;;14.35;6.45;;;;;;;;;;5044916;28;20182;-93
2022/11/27 06:44:40;;;;;;;11.67;6.73;;;;;;;;;;5044390;28;20213;-93
2022/11/27 06:47:06;;;;;;;12.93;6.22;;;;;;;;;;5040550;28;20413;-94
2022/11/27 06:49:32;;;;;;;13.77;6.50;;;;;;;;;;5037928;28;20182;-93
2022/11/27 06:51:58;;;;;;;9.50;5.87;;;;;;;;;;5037420;28;20312;-93
2022/11/27 06:54:24;;;;;;;13.73;5.67;;;;;;;;;;5038171;28;20421;-88
2022/11/27 06:56:50;;;;;;;9.07;5.80;;;;;;;;;;5036275;28;20424;-92
2022/11/27 06:59:17;;;;;;;11.43;6.53;;;;;;;;;;5036868;28;20210;-93
2022/11/27 07:01:43;;;;;;;12.18;5.38;;;;;;;;;;5039628;28;20204;-94
2022/11/27 07:04:10;;;;;;;8.18;6.20;;;;;;;;;;5038772;28;20185;-92
2022/11/27 07:06:36;;;;;;;13.07;6.25;;;;;;;;;;5035397;28;20177;-93
2022/11/27 07:09:02;;;;;;;12.40;5.70;;;;;;;;;;5036862;28;20261;-93
2022/11/27 07:11:29;;;;;;;10.68;6.32;;;;;;;;;;5038274;28;20228;-92
2022/11/27 07:14:00;;;;;;;12.15;6.10;;;;;;;;;;5039031;28;20185;-89
2022/11/27 07:16:27;;;;;;;13.15;5.82;;;;;;;;;;5039904;28;20176;-91
2022/11/27 07:18:54;;;;;;;8.15;5.40;;;;;;;;;;5042660;28;20257;-92
2022/11/27 07:21:20;;;;;;;10.10;5.70;;;;;;;;;;5038781;28;20188;-92
2022/11/27 07:23:46;;;;;;;10.23;4.80;;;;;;;;;;5039068;28;20261;-92
2022/11/27 07:26:14;;;;;;;12.90;6.00;;;;;;;;;;5043828;28;20171;-91
2022/11/27 07:28:42;;;;;;;8.65;5.85;;;;;;;;;;5055546;28;20912;-91
2022/11/27 07:31:09;;;;;;;13.75;4.97;;;;;;;;;;5051478;28;20181;-92
2022/11/27 07:33:35;;;;;;;10.73;5.22;;;;;;;;;;5042611;28;20178;-92
2022/11/27 07:36:03;;;;;;;8.60;5.60;;;;;;;;;;5040781;28;20669;-93
2022/11/27 07:38:29;;;;;;;12.30;5.28;;;;;;;;;;5037792;28;20485;-91
2022/11/27 07:40:55;;;;;;;11.27;5.50;;;;;;;;;;5038210;28;20235;-92
2022/11/27 07:43:21;;;;;;;5.93;4.00;;;;;;;;;;5039490;28;20527;-92
2022/11/27 07:45:47;;;;;;;8.18;4.70;;;;;;;;;;5038280;28;20182;-92
2022/11/27 07:48:13;;;;;;;11.30;4.73;;;;;;;;;;5040105;28;20191;-93
2022/11/27 07:50:39;;;;;;;7.50;4.40;;;;;;;;;;5037931;28;20405;-92
2022/11/27 07:53:05;;;;;;;8.73;4.57;;;;;;;;;;5038848;28;20447;-92
2022/11/27 07:55:31;;;;;;;6.60;4.40;;;;;;;;;;5037256;28;20186;-92
2022/11/27 07:57:57;;;;;;;8.67;5.40;;;;;;;;;;5036926;28;20450;-91
2022/11/27 08:00:23;;;;;;;8.13;4.57;;;;;;;;;;5037245;28;20830;-92
2022/11/27 08:02:49;;;;;;;6.43;4.22;;;;;;;;;;5038421;28;20494;-91
2022/11/27 08:05:15;;;;;;;6.80;4.20;;;;;;;;;;5037022;28;20327;-91
2022/11/27 08:07:41;;;;;;;10.35;4.00;;;;;;;;;;5036820;28;20417;-92
2022/11/27 08:10:07;;;;;;;8.35;4.20;;;;;;;;;;5038195;28;20197;-92
2022/11/27 08:12:33;;;;;;;7.45;3.80;;;;;;;;;;5037759;28;20205;-92
2022/11/27 08:14:59;;;;;;;8.07;4.30;;;;;;;;;;5037785;28;20193;-92
2022/11/27 08:17:25;;;;;;;6.10;4.37;;;;;;;;;;5036834;28;20186;-91
2022/11/27 08:19:51;;;;;;;8.30;3.53;;;;;;;;;;5036910;28;20530;-92
2022/11/27 08:22:18;;;;;;;10.10;3.90;;;;;;;;;;5019825;28;20192;-92
2022/11/27 08:24:44;;;;;;;13.02;5.30;;;;;;;;;;5037579;28;20801;-92
2022/11/27 08:27:11;;;;;;;6.43;3.30;;;;;;;;;;5037445;28;20706;-90
2022/11/27 08:29:37;;;;;;;6.28;4.07;;;;;;;;;;5037909;28;20185;-91
2022/11/27 08:32:03;;;;;;;5.03;3.85;;;;;;;;;;5036799;28;20178;-87
2022/11/27 08:34:29;;;;;;;4.72;3.80;;;;;;;;;;5036616;28;20186;-87
2022/11/27 08:36:55;;;;;;;10.50;4.60;;;;;;;;;;5040284;28;20170;-91
2022/11/27 08:39:21;;;;;;;5.95;5.13;;;7.40;99.90;;;;;;5040414;28;20507;-90
2022/11/27 08:41:47;;;;;;;6.80;4.53;;;7.30;99.90;;;;;;5036687;28;20175;-90
2022/11/27 08:44:12;;;;;;;9.80;4.23;;;7.30;99.90;;;;;;5019829;28;20182;-92
2022/11/27 08:46:38;;;;;;;5.60;3.33;;;7.30;99.90;;;;;;5022040;28;20186;-90
2022/11/27 08:49:03;;;;;;;10.10;4.00;;;7.40;99.90;;;;;;5053010;28;20501;-89
2022/11/27 08:51:29;;;;;;;7.07;4.07;;;7.40;99.90;;;;;;5035648;28;20182;-84
2022/11/27 08:53:55;;;;;;;7.17;3.77;;;7.40;99.90;;;;;;5061210;28;20213;-92
2022/11/27 08:56:23;;;;;;;8.03;3.90;;;7.50;99.90;;;;;;5049148;28;20182;-90
2022/11/27 08:58:49;;;;;;;4.60;3.50;;;7.50;99.90;;;;;;5049535;28;20177;-91
2022/11/27 09:01:21;;;;;;;6.20;3.70;;;7.50;99.90;;;;;;5047140;28;20218;-92
2022/11/27 09:03:47;;;;;;;5.15;3.50;;;7.60;99.90;;;;;;5042626;28;20421;-92
2022/11/27 09:06:22;;;;;;;6.13;3.50;;;7.60;99.90;;;;;;5041092;28;20220;-90
2022/11/27 09:08:49;;;;;;;3.60;2.80;;;7.60;99.90;;;;;;5044023;28;20185;-89
2022/11/27 09:11:16;;;;;;;6.15;3.20;;;7.70;99.90;;;;;;5037580;28;20280;-89
2022/11/27 09:13:43;;;;;;;6.82;3.75;;;7.70;99.90;;;;;;5035887;28;20171;-90
2022/11/27 09:16:11;;;;;;;4.20;2.92;;;7.70;99.90;;;;;;5041116;28;20187;-89
2022/11/27 09:18:37;;;;;;;5.20;3.65;;;7.80;99.90;;;;;;5034922;28;20183;-89
2022/11/27 09:21:08;;;;;;;7.18;3.40;;;7.80;99.90;;;;;;5033719;28;20275;-89
2022/11/27 09:23:34;;;;;;;6.72;3.15;;;7.80;99.90;;;;;;5034873;28;20527;-88
2022/11/27 09:26:01;;;;;;;5.95;3.10;;;8.00;99.90;;;;;;5035104;28;20181;-89
2022/11/27 09:28:27;;;;;;;5.88;2.75;;;8.10;99.90;;;;;;5034900;28;20174;-88
2022/11/27 09:30:58;;;;;;;4.00;2.58;;;8.20;99.90;;;;;;5034984;28;20182;-89
2022/11/27 09:33:25;;;;;;;4.50;2.95;;;8.20;99.90;;;;;;5034865;28;20185;-88
2022/11/27 09:35:51;;;;;;;3.53;2.63;;;8.40;99.90;;;;;;5035657;28;20186;-86
2022/11/27 09:38:16;;;;;;;5.17;3.43;;;8.50;99.90;;;;;;5038774;28;20270;-87
2022/11/27 09:40:51;;;;;;;4.20;3.10;;;8.50;99.90;;;;;;5034504;28;20308;-88
2022/11/27 09:43:20;;;;;;;9.85;3.40;;;8.60;99.90;;;;;;5035613;28;20197;-88
2022/11/27 09:45:51;;;;;;;4.72;3.28;;;8.80;99.90;;;;;;5034903;28;20658;-88
2022/11/27 09:48:31;;;;;;;8.15;3.75;;;9.00;99.90;;;;;;5034244;28;20174;-88
2022/11/27 09:51:00;;;;;;;3.78;2.60;;;8.90;99.90;;;;;;5034792;28;20181;-87
2022/11/27 09:53:42;;;;;;;6.82;4.10;;;8.90;99.90;;;;;;5037654;28;20181;-87
2022/11/27 09:56:11;;;;;;;4.47;3.10;;;9.00;99.90;;;;;;5043602;28;20265;-88
2022/11/27 09:58:40;;;;;;;3.42;2.60;;;8.90;99.90;;;;;;5045242;28;20651;-88
2022/11/27 10:01:11;;;;;;;4.75;3.15;;;8.90;99.90;;;;;;5035905;28;20220;-88
2022/11/27 10:03:40;;;;;;;7.97;4.05;;;8.90;99.90;;;;;;5036923;28;20185;-88
2022/11/27 10:06:22;;;;;;;10.10;2.75;;;9.00;99.90;;;;;;5018892;28;20212;-88
2022/11/27 10:08:56;;;;;;;4.32;3.60;;;8.90;99.90;;;;;;5036820;28;20178;-89
2022/11/27 10:11:39;;;;;;;6.65;2.60;;;9.00;99.90;;;;;;5034527;28;20635;-87
2022/11/27 10:14:22;;;;;;;4.65;3.38;;;9.00;99.90;;;;;;5034850;28;20164;-88
2022/11/27 10:16:51;;;;;;;4.25;2.97;;;9.00;99.90;;;;;;5034476;28;20545;-88
2022/11/27 10:19:46;;;;;;;6.45;3.45;;;9.00;99.90;;;;;;5049066;28;20263;-87
2022/11/27 10:22:43;;;;;;;3.85;3.10;;;9.00;99.90;;;;;;5048191;28;20178;-88
2022/11/27 10:25:37;;;;;;;5.20;3.17;;;9.10;99.90;;;;;;5050081;28;20190;-86
2022/11/27 10:28:32;;;;;;;6.82;3.10;;;9.10;99.90;;;;;;5049526;28;20209;-90
2022/11/27 10:31:13;;;;;;;5.63;3.00;;;9.20;99.90;;;;;;5053250;28;20178;-89
2022/11/27 10:33:50;;;;;;;3.17;2.58;;;9.30;99.90;;;;;;5051045;28;20162;-85
2022/11/27 10:41:34;;;;;;;3.25;2.38;;;9.40;99.90;;;;;;5061109;28;20240;-86
2022/11/27 10:44:20;;;;;;;4.85;2.95;;;9.40;99.90;;;;;;5188224;22;20751;-83
2022/11/27 10:46:49;;;;;;;5.10;2.30;;;9.40;99.90;;;;;;5247381;22;20245;-85
2022/11/27 10:49:15;;;;;;;3.05;2.85;;;9.40;99.90;;;;;;5073186;28;20235;-87
2022/11/27 10:51:41;;;;;;;4.30;2.67;;;9.50;99.90;;;;;;5052012;28;20181;-86
2022/11/27 11:04:30;;;;;;;6.60;3.40;;;9.30;99.90;;;;;;5576491;22;20258;-89
2022/11/27 11:06:57;;;;;;;4.05;3.08;;;9.40;99.90;;;;;;5443077;22;20232;-91
2022/11/27 11:09:31;;;;;;;5.25;3.10;;;9.40;99.90;;;;;;5060048;28;20198;-90
2022/11/27 11:12:19;;;;;;;6.18;4.60;;;9.40;99.90;;;;;;5075774;28;20191;-88
2022/11/27 11:14:57;;;;;;;10.25;7.40;;;9.30;99.90;;;;;;5058356;28;20188;-88
2022/11/27 11:17:29;;;;;;;6.68;3.95;;;9.40;99.90;;;;;;5052394;28;20691;-90
2022/11/27 11:19:55;;;;;;;8.70;4.20;;;9.30;99.90;;;;;;5059820;28;20190;-88
2022/11/27 11:22:21;;;;;;;5.80;3.87;;;9.30;99.90;;;;;;5072559;28;20233;-91
2022/11/27 11:24:49;;;;;;;6.77;5.63;;;9.30;99.90;;;;;;5069050;28;20415;-91
2022/11/27 11:27:22;;;;;;;10.32;4.80;;;9.40;99.90;;;;;;5037990;28;20427;-92
2022/11/27 11:29:53;;;;;;;6.78;4.03;;;9.40;99.90;;;;;;5056428;28;20182;-91
2022/11/27 11:32:19;;;;;;;6.00;4.47;;;9.30;99.90;;;;;;5069713;28;20174;-92
2022/11/27 11:34:51;;;;;;;4.60;4.20;;;9.40;99.90;;;;;;5063898;28;20180;-92
2022/11/27 11:37:24;;;;;;;5.88;3.92;;;9.40;99.90;;;;;;5064250;28;20173;-92
2022/11/27 11:40:04;;;;;;;4.85;4.18;;;9.40;99.90;;;;;;5064636;28;20205;-93
2022/11/27 11:42:35;;;;;;;6.55;3.65;;;9.40;99.90;;;;;;5046155;28;20521;-92
2022/11/27 11:45:17;;;;;;;5.22;3.75;;;9.50;99.90;;;;;;5046184;28;20195;-89
2022/11/27 11:47:55;;;;;;;6.03;4.30;;;9.50;99.90;;;;;;5067056;28;20167;-90
2022/11/27 11:50:23;;;;;;;6.75;3.95;;;9.50;99.90;;;;;;5051871;28;20181;-91
2022/11/27 11:52:55;;;;;;;6.32;4.10;;;9.50;99.90;;;;;;5069706;28;20261;-92
2022/11/27 11:55:39;;;;;;;6.00;3.85;;;9.60;99.90;;;;;;5049917;28;20197;-92
2022/11/27 11:58:35;;;;;;;6.60;3.85;;;9.70;99.90;;;;;;5062906;28;20607;-89
2022/11/27 12:01:27;;;;;;;14.35;4.07;;;9.70;99.90;;;;;;5044716;28;20267;-90
2022/11/27 12:04:10;;;;;;;5.45;3.60;;;9.80;99.90;;;;;;5045202;28;20185;-88
2022/11/27 12:07:08;;;;;;;4.22;3.75;;;9.90;99.90;;;;;;5041115;28;20186;-89
2022/11/27 12:09:52;;;;;;;4.60;3.60;;;10.00;99.90;;;;;;5040420;28;20186;-88
2022/11/27 12:12:24;;;;;;;5.57;3.80;;;10.10;99.90;;;;;;5040973;28;20554;-88
2022/11/27 12:15:02;;;;;;;7.47;3.70;;;10.10;99.90;;;;;;5039838;28;20178;-90
2022/11/27 12:17:27;;;;;;;5.65;4.15;;;10.20;99.90;;;;;;5060634;28;20188;-88
2022/11/27 12:20:09;;;;;;;10.30;4.03;;;10.20;99.90;;;;;;5061102;28;20288;-90
2022/11/27 12:23:06;;;;;;;6.45;3.90;;;10.20;99.90;;;;;;5061005;28;20192;-90
2022/11/27 12:25:45;;;;;;;4.65;3.55;;;10.20;99.90;;;;;;5058777;28;20178;-89
2022/11/27 12:28:36;;;;;;;7.70;4.32;;;10.20;99.90;;;;;;5044048;28;20176;-91
2022/11/27 12:31:27;;;;;;;5.75;3.80;;;10.20;99.90;;;;;;5043612;28;20199;-90
2022/11/27 12:34:16;;;;;;;5.45;3.80;;;10.20;99.90;;;;;;5054799;28;20185;-88
2022/11/27 12:37:00;;;;;;;5.10;3.22;;;10.30;99.90;;;;;;5045059;28;20195;-90
2022/11/27 12:39:46;;;;;;;3.92;3.33;;;10.20;99.90;;;;;;5063553;28;20193;-91
2022/11/27 12:42:23;;;;;;;7.35;3.67;;;10.20;99.90;;;;;;5061127;28;20172;-89
2022/11/27 12:44:52;;;;;;;5.88;3.60;;;10.20;99.90;;;;;;5042617;28;20181;-91
2022/11/27 12:47:41;;;;;;;6.10;4.00;;;10.20;99.90;;;;;;5044950;28;20209;-91
2022/11/27 12:50:27;;;;;;;6.40;3.65;;;10.10;99.90;;;;;;5043613;28;20189;-92
2022/11/27 12:53:18;;;;;;;4.28;3.88;;;10.10;99.90;;;;;;5043865;28;20177;-92
2022/11/27 12:56:16;;;;;;;5.25;3.97;;;10.10;99.90;;;;;;5052081;28;20236;-92
2022/11/27 12:58:49;;;;;;;6.80;3.53;;;10.00;99.90;;;;;;5062142;28;20169;-90
2022/11/27 13:01:44;;;;;;;7.38;3.80;;;9.90;99.90;;;;;;5062150;28;20197;-93
2022/11/27 13:04:17;;;;;;;5.15;3.70;;;10.00;99.90;;;;;;5045784;28;20193;-90
2022/11/27 13:06:59;;;;;;;4.03;3.63;;;9.90;99.90;;;;;;5061247;28;20181;-91
2022/11/27 13:09:48;;;;;;;7.55;3.65;;;10.00;99.90;;;;;;5062891;28;20173;-92
2022/11/27 13:12:27;;;;;;;4.47;3.58;;;10.00;99.90;;;;;;5060169;28;20936;-90
2022/11/27 13:15:03;;;;;;;8.35;3.88;;;10.00;99.90;;;;;;5040208;28;20200;-89
2022/11/27 13:17:41;;;;;;;6.70;3.72;;;10.00;99.90;;;;;;5038918;28;20545;-83
2022/11/27 13:20:20;;;;;;;6.75;3.80;;;10.10;99.90;;;;;;5055441;28;20569;-88
2022/11/27 13:22:47;;;;;;;4.95;3.88;;;10.10;99.90;;;;;;5038137;28;20177;-93
2022/11/27 13:25:13;;;;;;;7.13;5.25;;;10.00;99.90;;;;;;5039333;28;20216;-92
2022/11/27 13:27:44;;;;;;;8.40;5.03;;;10.00;99.90;;;;;;5057447;28;20184;-92
2022/11/27 13:30:26;;;;;;;7.45;4.90;;;9.90;99.90;;;;;;5056353;28;20166;-78
2022/11/27 13:33:05;;;;;;;7.07;3.90;;;10.00;99.90;;;;;;5054946;28;20208;-91
2022/11/27 13:35:35;;;;;;;8.50;3.58;;;9.80;99.90;;;;;;5057147;28;20158;-92
2022/11/27 13:38:09;;;;;;;12.88;4.72;;;9.70;99.90;;;;;;5040332;28;20181;-93
2022/11/27 13:40:45;;;;;;;5.65;4.60;;;9.60;99.90;;;;;;5040056;28;20200;-84
2022/11/27 13:43:31;;;;;;;5.32;4.20;;;9.50;99.90;;;;;;5054763;28;20208;-88
2022/11/27 13:46:03;;;;;;;7.35;4.38;;;9.50;99.90;;;;;;5053437;28;20257;-79
2022/11/27 13:48:31;;;;;;;6.70;3.88;;;9.50;99.90;;;;;;5037500;28;20181;-82
2022/11/27 13:50:58;;;;;;;7.05;4.55;;;9.40;99.90;;;;;;5055599;28;20228;-82
2022/11/27 13:53:35;;;;;;;7.60;5.10;;;9.40;99.90;;;;;;5037201;28;20185;-82
2022/11/27 13:56:02;;;;;;;6.75;5.40;;;9.30;99.90;;;;;;5054968;28;20578;-78
2022/11/27 13:58:30;;;;;;;8.20;4.80;;;9.30;99.90;;;;;;5056369;28;20191;-78
2022/11/27 14:00:56;;;;;;;6.88;3.75;;;9.20;99.90;;;;;;5055336;28;20259;-81
2022/11/27 14:03:25;;;;;;;4.60;3.63;;;9.20;99.90;;;;;;5046827;28;20185;-90
2022/11/27 14:05:51;;;;;;;8.93;4.28;;;9.10;99.90;;;;;;5039318;28;20206;-81
2022/11/27 14:08:24;;;;;;;6.60;4.90;;;9.00;99.90;;;;;;5038226;28;20225;-91
2022/11/27 14:11:06;;;;;;;7.20;4.63;;;9.00;99.90;;;;;;5042233;28;20462;-85
2022/11/27 14:13:37;;;;;;;5.90;4.20;;;9.00;99.90;;;;;;5038771;28;20188;-82
2022/11/27 14:16:27;;;;;;;8.45;4.22;;;8.90;99.90;;;;;;5037141;28;20170;-85
2022/11/27 14:18:56;;;;;;;8.75;4.03;;;8.80;99.90;;;;;;5037222;28;20330;-87
2022/11/27 14:21:39;;;;;;;6.07;4.05;;;8.80;99.90;;;;;;5053399;28;20204;-92
2022/11/27 14:24:24;;;;;;;5.05;4.05;;;8.80;99.90;;;;;;5050993;28;20169;-91
2022/11/27 14:26:49;;;;;;;5.63;4.40;;;8.80;99.90;;;;;;5041047;28;20186;-89